Terminal Aerodrome Forecast
Issued by NWS

Home | Current Version | Previous Version | Text Only | Print | Product List | Glossary On
Versions: 1 2 3 4 5 6 7 8 9 10 11 12 13 14 15 16 17 18 19
000
FTUS44 KSJT 152300
TAFSOA
TAF
KSOA 152322Z 1600/1624 16005KT P6SM SCT050 BKN250
     FM160200 VRB03KT P6SM BKN050
     FM161500 17004KT P6SM SCT015
     FM161800 17004KT P6SM SCT040 BKN250=

USA.gov is the U.S. government's official web portal to all federal, state and local government web resources and services.